sensor_id;sensor_type;location;lat;lon;timestamp;temperature;humidity
11491;DHT22;5802;52.832;4.758;2024-02-23T00:02:13;25.30;44.30
11491;DHT22;5802;52.832;4.758;2024-02-23T00:04:40;25.20;44.30
11491;DHT22;5802;52.832;4.758;2024-02-23T00:07:08;25.20;44.30
11491;DHT22;5802;52.832;4.758;2024-02-23T00:09:35;25.20;44.30
11491;DHT22;5802;52.832;4.758;2024-02-23T00:12:02;25.20;44.30
11491;DHT22;5802;52.832;4.758;2024-02-23T00:14:29;25.20;44.30
11491;DHT22;5802;52.832;4.758;2024-02-23T00:16:57;25.20;44.40
11491;DHT22;5802;52.832;4.758;2024-02-23T00:19:24;25.20;44.40
11491;DHT22;5802;52.832;4.758;2024-02-23T00:21:51;25.20;44.30
11491;DHT22;5802;52.832;4.758;2024-02-23T00:24:19;25.20;44.30
11491;DHT22;5802;52.832;4.758;2024-02-23T00:26:48;25.20;44.40
11491;DHT22;5802;52.832;4.758;2024-02-23T00:29:16;25.20;44.40
11491;DHT22;5802;52.832;4.758;2024-02-23T00:31:43;25.20;44.40
11491;DHT22;5802;52.832;4.758;2024-02-23T00:34:11;25.20;44.40
11491;DHT22;5802;52.832;4.758;2024-02-23T00:36:39;25.10;44.30
11491;DHT22;5802;52.832;4.758;2024-02-23T00:39:06;25.10;44.30
11491;DHT22;5802;52.832;4.758;2024-02-23T00:41:35;25.10;44.30
11491;DHT22;5802;52.832;4.758;2024-02-23T00:44:02;25.10;44.30
11491;DHT22;5802;52.832;4.758;2024-02-23T00:46:29;25.10;44.30
11491;DHT22;5802;52.832;4.758;2024-02-23T00:48:56;25.10;44.30
11491;DHT22;5802;52.832;4.758;2024-02-23T00:51:23;25.10;44.30
11491;DHT22;5802;52.832;4.758;2024-02-23T00:53:50;25.10;44.30
11491;DHT22;5802;52.832;4.758;2024-02-23T00:56:17;25.10;44.40
11491;DHT22;5802;52.832;4.758;2024-02-23T00:58:45;25.10;44.50
11491;DHT22;5802;52.832;4.758;2024-02-23T01:01:12;25.10;44.40
11491;DHT22;5802;52.832;4.758;2024-02-23T01:03:39;25.10;44.50
11491;DHT22;5802;52.832;4.758;2024-02-23T01:06:06;25.10;44.40
11491;DHT22;5802;52.832;4.758;2024-02-23T01:08:33;25.10;44.50
11491;DHT22;5802;52.832;4.758;2024-02-23T01:11:01;25.00;44.50
11491;DHT22;5802;52.832;4.758;2024-02-23T01:13:28;25.00;44.50
11491;DHT22;5802;52.832;4.758;2024-02-23T01:15:56;25.00;44.50
11491;DHT22;5802;52.832;4.758;2024-02-23T01:18:23;25.00;44.40
11491;DHT22;5802;52.832;4.758;2024-02-23T01:20:50;25.00;44.50
11491;DHT22;5802;52.832;4.758;2024-02-23T01:23:16;25.00;44.50
11491;DHT22;5802;52.832;4.758;2024-02-23T01:25:43;25.00;44.40
11491;DHT22;5802;52.832;4.758;2024-02-23T01:28:10;25.00;45.00
11491;DHT22;5802;52.832;4.758;2024-02-23T01:30:37;25.00;44.40
11491;DHT22;5802;52.832;4.758;2024-02-23T01:33:06;25.00;44.50
11491;DHT22;5802;52.832;4.758;2024-02-23T01:35:33;25.00;44.50
11491;DHT22;5802;52.832;4.758;2024-02-23T01:37:59;25.00;44.50
11491;DHT22;5802;52.832;4.758;2024-02-23T01:40:26;25.00;44.50
11491;DHT22;5802;52.832;4.758;2024-02-23T01:43:01;25.00;44.50
11491;DHT22;5802;52.832;4.758;2024-02-23T01:45:29;25.00;44.50
11491;DHT22;5802;52.832;4.758;2024-02-23T01:47:56;25.00;44.40
11491;DHT22;5802;52.832;4.758;2024-02-23T01:50:25;25.00;44.20
11491;DHT22;5802;52.832;4.758;2024-02-23T01:52:53;25.00;44.20
11491;DHT22;5802;52.832;4.758;2024-02-23T01:55:20;25.00;44.80
11491;DHT22;5802;52.832;4.758;2024-02-23T01:57:47;25.00;44.10
11491;DHT22;5802;52.832;4.758;2024-02-23T02:00:17;25.00;44.10
11491;DHT22;5802;52.832;4.758;2024-02-23T02:02:45;25.00;44.00
11491;DHT22;5802;52.832;4.758;2024-02-23T02:05:12;25.00;44.00
11491;DHT22;5802;52.832;4.758;2024-02-23T02:07:41;25.00;43.90
11491;DHT22;5802;52.832;4.758;2024-02-23T02:10:09;25.00;44.00
11491;DHT22;5802;52.832;4.758;2024-02-23T02:12:36;25.00;43.90
11491;DHT22;5802;52.832;4.758;2024-02-23T02:15:04;25.00;43.90
11491;DHT22;5802;52.832;4.758;2024-02-23T02:17:31;24.90;43.90
11491;DHT22;5802;52.832;4.758;2024-02-23T02:19:59;24.90;43.90
11491;DHT22;5802;52.832;4.758;2024-02-23T02:22:31;24.90;43.90
11491;DHT22;5802;52.832;4.758;2024-02-23T02:24:59;24.90;44.00
11491;DHT22;5802;52.832;4.758;2024-02-23T02:27:26;24.90;43.80
11491;DHT22;5802;52.832;4.758;2024-02-23T02:29:52;24.90;43.80
11491;DHT22;5802;52.832;4.758;2024-02-23T02:32:19;25.00;43.80
11491;DHT22;5802;52.832;4.758;2024-02-23T02:34:46;25.00;43.80
11491;DHT22;5802;52.832;4.758;2024-02-23T02:37:12;24.90;43.70
11491;DHT22;5802;52.832;4.758;2024-02-23T02:39:39;24.90;43.80
11491;DHT22;5802;52.832;4.758;2024-02-23T02:42:08;24.90;43.70
11491;DHT22;5802;52.832;4.758;2024-02-23T02:44:35;24.90;43.70
11491;DHT22;5802;52.832;4.758;2024-02-23T02:47:01;24.90;43.70
11491;DHT22;5802;52.832;4.758;2024-02-23T02:49:28;24.90;43.70
11491;DHT22;5802;52.832;4.758;2024-02-23T02:51:55;24.90;43.60
11491;DHT22;5802;52.832;4.758;2024-02-23T02:54:22;24.90;43.50
11491;DHT22;5802;52.832;4.758;2024-02-23T02:56:49;24.90;43.60
11491;DHT22;5802;52.832;4.758;2024-02-23T02:59:17;24.90;43.50
11491;DHT22;5802;52.832;4.758;2024-02-23T03:01:44;24.90;43.60
11491;DHT22;5802;52.832;4.758;2024-02-23T03:04:12;24.90;43.60
11491;DHT22;5802;52.832;4.758;2024-02-23T03:06:39;24.90;43.50
11491;DHT22;5802;52.832;4.758;2024-02-23T03:09:06;24.90;43.50
11491;DHT22;5802;52.832;4.758;2024-02-23T03:11:33;24.90;43.50
11491;DHT22;5802;52.832;4.758;2024-02-23T03:14:00;24.90;43.40
11491;DHT22;5802;52.832;4.758;2024-02-23T03:16:28;24.90;44.10
11491;DHT22;5802;52.832;4.758;2024-02-23T03:18:56;24.90;43.50
11491;DHT22;5802;52.832;4.758;2024-02-23T03:21:23;24.90;43.50
11491;DHT22;5802;52.832;4.758;2024-02-23T03:23:50;24.90;43.30
11491;DHT22;5802;52.832;4.758;2024-02-23T03:26:17;24.90;43.30
11491;DHT22;5802;52.832;4.758;2024-02-23T03:28:44;24.90;43.30
11491;DHT22;5802;52.832;4.758;2024-02-23T03:31:11;24.90;43.30
11491;DHT22;5802;52.832;4.758;2024-02-23T03:33:39;24.90;43.30
11491;DHT22;5802;52.832;4.758;2024-02-23T03:36:06;24.90;43.20
11491;DHT22;5802;52.832;4.758;2024-02-23T03:38:33;24.90;43.20
11491;DHT22;5802;52.832;4.758;2024-02-23T03:41:00;24.90;43.10
11491;DHT22;5802;52.832;4.758;2024-02-23T03:43:27;24.90;43.00
11491;DHT22;5802;52.832;4.758;2024-02-23T03:45:54;24.90;43.00
11491;DHT22;5802;52.832;4.758;2024-02-23T03:48:20;24.90;42.90
11491;DHT22;5802;52.832;4.758;2024-02-23T03:50:49;24.90;42.90
11491;DHT22;5802;52.832;4.758;2024-02-23T03:53:15;24.90;42.90
11491;DHT22;5802;52.832;4.758;2024-02-23T03:55:42;24.90;42.80
11491;DHT22;5802;52.832;4.758;2024-02-23T03:58:09;24.90;42.70
11491;DHT22;5802;52.832;4.758;2024-02-23T04:00:36;24.90;42.70
11491;DHT22;5802;52.832;4.758;2024-02-23T04:03:03;24.90;42.70
11491;DHT22;5802;52.832;4.758;2024-02-23T04:05:30;24.90;42.70
11491;DHT22;5802;52.832;4.758;2024-02-23T04:07:58;24.90;42.60
11491;DHT22;5802;52.832;4.758;2024-02-23T04:10:25;24.90;42.50
11491;DHT22;5802;52.832;4.758;2024-02-23T04:12:52;24.90;42.50
11491;DHT22;5802;52.832;4.758;2024-02-23T04:15:19;24.90;42.40
11491;DHT22;5802;52.832;4.758;2024-02-23T04:17:46;24.90;42.30
11491;DHT22;5802;52.832;4.758;2024-02-23T04:20:13;24.90;42.40
11491;DHT22;5802;52.832;4.758;2024-02-23T04:22:40;24.80;42.30
11491;DHT22;5802;52.832;4.758;2024-02-23T04:25:08;24.90;42.30
11491;DHT22;5802;52.832;4.758;2024-02-23T04:27:35;24.80;42.20
11491;DHT22;5802;52.832;4.758;2024-02-23T04:30:02;24.80;42.10
11491;DHT22;5802;52.832;4.758;2024-02-23T04:32:29;24.80;42.10
11491;DHT22;5802;52.832;4.758;2024-02-23T04:34:56;24.80;42.00
11491;DHT22;5802;52.832;4.758;2024-02-23T04:37:23;24.80;42.00
11491;DHT22;5802;52.832;4.758;2024-02-23T04:39:50;24.80;42.00
11491;DHT22;5802;52.832;4.758;2024-02-23T04:42:18;24.80;41.90
11491;DHT22;5802;52.832;4.758;2024-02-23T04:44:45;24.80;41.90
11491;DHT22;5802;52.832;4.758;2024-02-23T04:47:14;24.80;42.10
11491;DHT22;5802;52.832;4.758;2024-02-23T04:49:41;24.80;42.00
11491;DHT22;5802;52.832;4.758;2024-02-23T04:52:08;24.80;41.90
11491;DHT22;5802;52.832;4.758;2024-02-23T04:54:35;24.80;41.80
11491;DHT22;5802;52.832;4.758;2024-02-23T04:57:02;24.80;41.90
11491;DHT22;5802;52.832;4.758;2024-02-23T04:59:30;24.80;41.80
11491;DHT22;5802;52.832;4.758;2024-02-23T05:01:58;24.80;41.80
11491;DHT22;5802;52.832;4.758;2024-02-23T05:04:24;24.80;41.90
11491;DHT22;5802;52.832;4.758;2024-02-23T05:06:52;24.80;41.80
11491;DHT22;5802;52.832;4.758;2024-02-23T05:09:19;24.80;41.90
11491;DHT22;5802;52.832;4.758;2024-02-23T05:11:46;24.80;41.80
11491;DHT22;5802;52.832;4.758;2024-02-23T05:14:14;24.80;41.60
11491;DHT22;5802;52.832;4.758;2024-02-23T05:16:42;24.80;41.50
11491;DHT22;5802;52.832;4.758;2024-02-23T05:19:09;24.80;41.60
11491;DHT22;5802;52.832;4.758;2024-02-23T05:21:36;24.80;41.50
11491;DHT22;5802;52.832;4.758;2024-02-23T05:24:03;24.80;41.70
11491;DHT22;5802;52.832;4.758;2024-02-23T05:26:31;24.80;41.70
11491;DHT22;5802;52.832;4.758;2024-02-23T05:28:58;24.70;41.70
11491;DHT22;5802;52.832;4.758;2024-02-23T05:31:46;24.70;41.70
11491;DHT22;5802;52.832;4.758;2024-02-23T05:34:13;24.80;41.80
11491;DHT22;5802;52.832;4.758;2024-02-23T05:36:40;24.70;41.80
11491;DHT22;5802;52.832;4.758;2024-02-23T05:39:07;24.70;41.60
11491;DHT22;5802;52.832;4.758;2024-02-23T05:41:35;24.70;41.70
11491;DHT22;5802;52.832;4.758;2024-02-23T05:44:02;24.70;41.70
11491;DHT22;5802;52.832;4.758;2024-02-23T05:46:31;24.70;41.70
11491;DHT22;5802;52.832;4.758;2024-02-23T05:49:00;24.70;41.70
11491;DHT22;5802;52.832;4.758;2024-02-23T05:51:28;24.70;41.60
11491;DHT22;5802;52.832;4.758;2024-02-23T05:53:55;24.70;41.60
11491;DHT22;5802;52.832;4.758;2024-02-23T05:56:22;24.70;41.50
11491;DHT22;5802;52.832;4.758;2024-02-23T05:58:50;24.70;41.60
11491;DHT22;5802;52.832;4.758;2024-02-23T06:01:17;24.70;42.00
11491;DHT22;5802;52.832;4.758;2024-02-23T06:03:44;24.70;41.30
11491;DHT22;5802;52.832;4.758;2024-02-23T06:06:12;24.70;41.40
11491;DHT22;5802;52.832;4.758;2024-02-23T06:08:39;24.70;41.40
11491;DHT22;5802;52.832;4.758;2024-02-23T06:11:06;24.70;41.40
11491;DHT22;5802;52.832;4.758;2024-02-23T06:13:35;24.70;41.30
11491;DHT22;5802;52.832;4.758;2024-02-23T06:16:03;24.70;41.30
11491;DHT22;5802;52.832;4.758;2024-02-23T06:18:30;24.70;41.30
11491;DHT22;5802;52.832;4.758;2024-02-23T06:20:56;24.70;41.10
11491;DHT22;5802;52.832;4.758;2024-02-23T06:23:25;24.70;40.90
11491;DHT22;5802;52.832;4.758;2024-02-23T06:25:51;24.70;40.90
11491;DHT22;5802;52.832;4.758;2024-02-23T06:28:18;24.70;40.90
11491;DHT22;5802;52.832;4.758;2024-02-23T06:30:45;24.70;41.00
11491;DHT22;5802;52.832;4.758;2024-02-23T06:33:12;24.70;41.00
11491;DHT22;5802;52.832;4.758;2024-02-23T06:35:39;24.70;41.00
11491;DHT22;5802;52.832;4.758;2024-02-23T06:38:06;24.70;40.90
11491;DHT22;5802;52.832;4.758;2024-02-23T06:40:34;24.70;40.90
11491;DHT22;5802;52.832;4.758;2024-02-23T06:43:01;24.70;40.80
11491;DHT22;5802;52.832;4.758;2024-02-23T06:45:28;24.70;40.80
11491;DHT22;5802;52.832;4.758;2024-02-23T06:47:54;24.70;40.90
11491;DHT22;5802;52.832;4.758;2024-02-23T06:50:22;24.70;40.80
11491;DHT22;5802;52.832;4.758;2024-02-23T06:52:53;24.60;40.60
11491;DHT22;5802;52.832;4.758;2024-02-23T06:55:20;24.70;40.70
11491;DHT22;5802;52.832;4.758;2024-02-23T06:57:48;24.60;40.60
11491;DHT22;5802;52.832;4.758;2024-02-23T07:00:15;24.60;40.70
11491;DHT22;5802;52.832;4.758;2024-02-23T07:02:42;24.60;40.70
11491;DHT22;5802;52.832;4.758;2024-02-23T07:05:09;24.60;40.80
11491;DHT22;5802;52.832;4.758;2024-02-23T07:07:36;24.60;40.80
11491;DHT22;5802;52.832;4.758;2024-02-23T07:10:04;24.60;40.80
11491;DHT22;5802;52.832;4.758;2024-02-23T07:12:31;24.60;40.80
11491;DHT22;5802;52.832;4.758;2024-02-23T07:15:00;24.60;40.80
11491;DHT22;5802;52.832;4.758;2024-02-23T07:17:27;24.60;40.80
11491;DHT22;5802;52.832;4.758;2024-02-23T07:19:54;24.60;40.90
11491;DHT22;5802;52.832;4.758;2024-02-23T07:22:28;24.60;40.90
11491;DHT22;5802;52.832;4.758;2024-02-23T07:24:55;24.60;40.90
11491;DHT22;5802;52.832;4.758;2024-02-23T07:27:22;24.60;40.90
11491;DHT22;5802;52.832;4.758;2024-02-23T07:29:49;24.60;40.80
11491;DHT22;5802;52.832;4.758;2024-02-23T07:32:17;24.60;40.80
11491;DHT22;5802;52.832;4.758;2024-02-23T07:34:44;24.60;40.80
11491;DHT22;5802;52.832;4.758;2024-02-23T07:37:11;24.60;40.90
11491;DHT22;5802;52.832;4.758;2024-02-23T07:39:38;24.60;41.50
11491;DHT22;5802;52.832;4.758;2024-02-23T07:42:05;24.60;40.80
11491;DHT22;5802;52.832;4.758;2024-02-23T07:44:34;24.60;40.90
11491;DHT22;5802;52.832;4.758;2024-02-23T07:47:03;24.60;40.90
11491;DHT22;5802;52.832;4.758;2024-02-23T07:49:31;24.60;40.80
11491;DHT22;5802;52.832;4.758;2024-02-23T07:51:58;24.60;40.80
11491;DHT22;5802;52.832;4.758;2024-02-23T07:54:25;24.60;40.80
11491;DHT22;5802;52.832;4.758;2024-02-23T07:56:52;24.60;40.80
11491;DHT22;5802;52.832;4.758;2024-02-23T07:59:19;24.60;40.80
11491;DHT22;5802;52.832;4.758;2024-02-23T08:01:45;24.60;40.80
11491;DHT22;5802;52.832;4.758;2024-02-23T08:04:13;24.60;40.80
11491;DHT22;5802;52.832;4.758;2024-02-23T08:06:41;24.60;39.40
11491;DHT22;5802;52.832;4.758;2024-02-23T08:09:08;24.60;39.30
11491;DHT22;5802;52.832;4.758;2024-02-23T08:11:36;24.60;39.30
11491;DHT22;5802;52.832;4.758;2024-02-23T08:14:03;24.60;39.50
11491;DHT22;5802;52.832;4.758;2024-02-23T08:16:30;24.50;39.50
11491;DHT22;5802;52.832;4.758;2024-02-23T08:18:57;24.50;39.50
11491;DHT22;5802;52.832;4.758;2024-02-23T08:21:25;24.50;39.50
11491;DHT22;5802;52.832;4.758;2024-02-23T08:23:53;24.50;39.60
11491;DHT22;5802;52.832;4.758;2024-02-23T08:26:20;24.50;39.70
11491;DHT22;5802;52.832;4.758;2024-02-23T08:28:47;24.50;39.80
11491;DHT22;5802;52.832;4.758;2024-02-23T08:31:14;24.50;39.80
11491;DHT22;5802;52.832;4.758;2024-02-23T08:33:42;24.50;39.80
11491;DHT22;5802;52.832;4.758;2024-02-23T08:36:10;24.50;39.90
11491;DHT22;5802;52.832;4.758;2024-02-23T08:38:37;24.50;40.00
11491;DHT22;5802;52.832;4.758;2024-02-23T08:41:05;24.50;39.90
11491;DHT22;5802;52.832;4.758;2024-02-23T08:43:32;24.50;40.00
11491;DHT22;5802;52.832;4.758;2024-02-23T08:45:59;24.50;39.90
11491;DHT22;5802;52.832;4.758;2024-02-23T08:48:26;24.50;40.00
11491;DHT22;5802;52.832;4.758;2024-02-23T08:50:53;24.50;40.00
11491;DHT22;5802;52.832;4.758;2024-02-23T08:53:20;24.50;39.90
11491;DHT22;5802;52.832;4.758;2024-02-23T08:55:47;24.50;39.90
11491;DHT22;5802;52.832;4.758;2024-02-23T08:58:16;24.50;40.00
11491;DHT22;5802;52.832;4.758;2024-02-23T09:00:43;24.50;39.90
11491;DHT22;5802;52.832;4.758;2024-02-23T09:03:10;24.50;39.80
11491;DHT22;5802;52.832;4.758;2024-02-23T09:05:37;24.50;39.90
11491;DHT22;5802;52.832;4.758;2024-02-23T09:08:05;24.50;39.80
11491;DHT22;5802;52.832;4.758;2024-02-23T09:10:32;24.50;39.90
11491;DHT22;5802;52.832;4.758;2024-02-23T09:12:59;24.50;39.90
11491;DHT22;5802;52.832;4.758;2024-02-23T09:15:27;24.50;39.80
11491;DHT22;5802;52.832;4.758;2024-02-23T09:17:54;24.50;39.80
11491;DHT22;5802;52.832;4.758;2024-02-23T09:20:20;24.50;39.70
11491;DHT22;5802;52.832;4.758;2024-02-23T09:22:48;24.50;39.80
11491;DHT22;5802;52.832;4.758;2024-02-23T09:25:15;24.50;39.70
11491;DHT22;5802;52.832;4.758;2024-02-23T09:27:42;24.50;39.70
11491;DHT22;5802;52.832;4.758;2024-02-23T09:30:11;24.50;39.70
11491;DHT22;5802;52.832;4.758;2024-02-23T09:32:39;24.50;39.60
11491;DHT22;5802;52.832;4.758;2024-02-23T09:35:07;24.60;39.60
11491;DHT22;5802;52.832;4.758;2024-02-23T09:37:33;24.50;39.50
11491;DHT22;5802;52.832;4.758;2024-02-23T09:40:00;24.50;39.60
11491;DHT22;5802;52.832;4.758;2024-02-23T09:42:28;24.50;39.50
11491;DHT22;5802;52.832;4.758;2024-02-23T09:44:59;24.60;39.60
11491;DHT22;5802;52.832;4.758;2024-02-23T09:47:27;24.50;39.40
11491;DHT22;5802;52.832;4.758;2024-02-23T09:49:56;24.60;39.60
11491;DHT22;5802;52.832;4.758;2024-02-23T09:52:23;24.60;39.40
11491;DHT22;5802;52.832;4.758;2024-02-23T09:54:50;24.60;39.40
11491;DHT22;5802;52.832;4.758;2024-02-23T09:57:17;24.60;39.30
11491;DHT22;5802;52.832;4.758;2024-02-23T09:59:44;24.60;39.30
11491;DHT22;5802;52.832;4.758;2024-02-23T10:02:15;24.60;39.30
11491;DHT22;5802;52.832;4.758;2024-02-23T10:04:43;24.60;39.40
11491;DHT22;5802;52.832;4.758;2024-02-23T10:07:14;24.70;39.50
11491;DHT22;5802;52.832;4.758;2024-02-23T10:09:42;24.70;40.10
11491;DHT22;5802;52.832;4.758;2024-02-23T10:12:09;24.70;39.20
11491;DHT22;5802;52.832;4.758;2024-02-23T10:14:36;24.70;39.30
11491;DHT22;5802;52.832;4.758;2024-02-23T10:17:03;24.70;39.10
11491;DHT22;5802;52.832;4.758;2024-02-23T10:19:30;24.70;39.10
11491;DHT22;5802;52.832;4.758;2024-02-23T10:21:57;24.70;39.20
11491;DHT22;5802;52.832;4.758;2024-02-23T10:24:25;24.70;39.00
11491;DHT22;5802;52.832;4.758;2024-02-23T10:26:52;24.70;39.00
11491;DHT22;5802;52.832;4.758;2024-02-23T10:29:19;24.70;39.00
11491;DHT22;5802;52.832;4.758;2024-02-23T10:31:47;24.70;39.00
11491;DHT22;5802;52.832;4.758;2024-02-23T10:34:18;24.70;38.90
11491;DHT22;5802;52.832;4.758;2024-02-23T10:36:46;24.70;38.90
11491;DHT22;5802;52.832;4.758;2024-02-23T10:39:16;24.70;38.90
11491;DHT22;5802;52.832;4.758;2024-02-23T10:41:47;24.70;38.80
11491;DHT22;5802;52.832;4.758;2024-02-23T10:44:16;24.70;39.00
11491;DHT22;5802;52.832;4.758;2024-02-23T10:46:44;24.70;38.90
11491;DHT22;5802;52.832;4.758;2024-02-23T10:49:14;24.70;39.00
11491;DHT22;5802;52.832;4.758;2024-02-23T10:51:42;24.70;39.00
11491;DHT22;5802;52.832;4.758;2024-02-23T10:54:11;24.70;38.90
11491;DHT22;5802;52.832;4.758;2024-02-23T10:56:38;24.70;39.00
11491;DHT22;5802;52.832;4.758;2024-02-23T10:59:08;24.70;39.00
11491;DHT22;5802;52.832;4.758;2024-02-23T11:01:35;24.70;39.20
11491;DHT22;5802;52.832;4.758;2024-02-23T11:04:06;24.70;39.10
11491;DHT22;5802;52.832;4.758;2024-02-23T11:06:34;24.70;39.10
11491;DHT22;5802;52.832;4.758;2024-02-23T11:09:06;24.70;39.10
11491;DHT22;5802;52.832;4.758;2024-02-23T11:11:34;24.70;39.20
11491;DHT22;5802;52.832;4.758;2024-02-23T11:14:08;24.70;39.20
11491;DHT22;5802;52.832;4.758;2024-02-23T11:16:39;24.70;39.30
11491;DHT22;5802;52.832;4.758;2024-02-23T11:19:08;24.70;39.20
11491;DHT22;5802;52.832;4.758;2024-02-23T11:21:35;24.70;39.10
11491;DHT22;5802;52.832;4.758;2024-02-23T11:24:03;24.80;39.30
11491;DHT22;5802;52.832;4.758;2024-02-23T11:26:31;24.80;39.30
11491;DHT22;5802;52.832;4.758;2024-02-23T11:28:59;24.80;39.30
11491;DHT22;5802;52.832;4.758;2024-02-23T11:31:30;24.90;39.40
11491;DHT22;5802;52.832;4.758;2024-02-23T11:33:57;24.80;39.30
11491;DHT22;5802;52.832;4.758;2024-02-23T11:36:28;24.80;39.40
11491;DHT22;5802;52.832;4.758;2024-02-23T11:38:57;24.90;39.40
11491;DHT22;5802;52.832;4.758;2024-02-23T11:41:25;24.90;39.40
11491;DHT22;5802;52.832;4.758;2024-02-23T11:43:52;25.00;39.40
11491;DHT22;5802;52.832;4.758;2024-02-23T11:46:21;25.00;39.40
11491;DHT22;5802;52.832;4.758;2024-02-23T11:48:49;25.00;39.30
11491;DHT22;5802;52.832;4.758;2024-02-23T11:51:19;25.00;39.40
11491;DHT22;5802;52.832;4.758;2024-02-23T11:53:46;25.10;39.50
11491;DHT22;5802;52.832;4.758;2024-02-23T11:56:14;25.10;39.40
11491;DHT22;5802;52.832;4.758;2024-02-23T11:58:41;25.20;39.60
11491;DHT22;5802;52.832;4.758;2024-02-23T12:01:08;25.20;39.50
11491;DHT22;5802;52.832;4.758;2024-02-23T12:03:35;25.20;39.40
11491;DHT22;5802;52.832;4.758;2024-02-23T12:06:05;25.30;39.60
11491;DHT22;5802;52.832;4.758;2024-02-23T12:08:33;25.30;39.60
11491;DHT22;5802;52.832;4.758;2024-02-23T12:11:03;25.30;39.60
11491;DHT22;5802;52.832;4.758;2024-02-23T12:13:31;25.30;39.60
11491;DHT22;5802;52.832;4.758;2024-02-23T12:15:58;25.30;39.60
11491;DHT22;5802;52.832;4.758;2024-02-23T12:18:25;25.40;39.70
11491;DHT22;5802;52.832;4.758;2024-02-23T12:20:52;25.40;39.70
11491;DHT22;5802;52.832;4.758;2024-02-23T12:23:20;25.40;39.80
11491;DHT22;5802;52.832;4.758;2024-02-23T12:25:53;25.40;40.00
11491;DHT22;5802;52.832;4.758;2024-02-23T12:28:21;25.40;40.00
11491;DHT22;5802;52.832;4.758;2024-02-23T12:30:59;25.50;40.00
11491;DHT22;5802;52.832;4.758;2024-02-23T12:33:27;25.50;40.00
11491;DHT22;5802;52.832;4.758;2024-02-23T12:35:55;25.50;40.00
11491;DHT22;5802;52.832;4.758;2024-02-23T12:38:23;25.60;40.60
11491;DHT22;5802;52.832;4.758;2024-02-23T12:40:51;25.50;39.80
11491;DHT22;5802;52.832;4.758;2024-02-23T12:43:18;25.50;39.80
11491;DHT22;5802;52.832;4.758;2024-02-23T12:45:47;25.50;39.80
11491;DHT22;5802;52.832;4.758;2024-02-23T12:48:15;25.50;39.80
11491;DHT22;5802;52.832;4.758;2024-02-23T12:50:43;25.50;39.80
11491;DHT22;5802;52.832;4.758;2024-02-23T12:53:11;25.60;39.70
11491;DHT22;5802;52.832;4.758;2024-02-23T12:55:58;25.60;39.70
11491;DHT22;5802;52.832;4.758;2024-02-23T12:58:25;25.60;39.70
11491;DHT22;5802;52.832;4.758;2024-02-23T13:00:52;25.60;39.70
11491;DHT22;5802;52.832;4.758;2024-02-23T13:03:19;25.60;39.70
11491;DHT22;5802;52.832;4.758;2024-02-23T13:05:46;25.60;39.60
11491;DHT22;5802;52.832;4.758;2024-02-23T13:08:13;25.70;39.50
11491;DHT22;5802;52.832;4.758;2024-02-23T13:10:40;25.60;39.30
11491;DHT22;5802;52.832;4.758;2024-02-23T13:13:08;25.70;39.30
11491;DHT22;5802;52.832;4.758;2024-02-23T13:15:35;25.70;39.40
11491;DHT22;5802;52.832;4.758;2024-02-23T13:18:03;25.70;39.30
11491;DHT22;5802;52.832;4.758;2024-02-23T13:20:30;25.70;39.00
11491;DHT22;5802;52.832;4.758;2024-02-23T13:22:57;25.70;38.70
11491;DHT22;5802;52.832;4.758;2024-02-23T13:25:24;25.70;38.60
11491;DHT22;5802;52.832;4.758;2024-02-23T13:27:50;25.70;38.40
11491;DHT22;5802;52.832;4.758;2024-02-23T13:30:19;25.80;38.60
11491;DHT22;5802;52.832;4.758;2024-02-23T13:32:46;25.70;38.20
11491;DHT22;5802;52.832;4.758;2024-02-23T13:35:13;25.80;38.40
11491;DHT22;5802;52.832;4.758;2024-02-23T13:37:41;25.80;38.20
11491;DHT22;5802;52.832;4.758;2024-02-23T13:40:09;25.80;38.20
11491;DHT22;5802;52.832;4.758;2024-02-23T13:42:36;25.80;38.10
11491;DHT22;5802;52.832;4.758;2024-02-23T13:45:05;25.80;37.80
11491;DHT22;5802;52.832;4.758;2024-02-23T13:47:34;25.80;37.90
11491;DHT22;5802;52.832;4.758;2024-02-23T13:50:01;25.90;37.90
11491;DHT22;5802;52.832;4.758;2024-02-23T13:52:28;25.90;38.00
11491;DHT22;5802;52.832;4.758;2024-02-23T13:54:55;25.90;37.90
11491;DHT22;5802;52.832;4.758;2024-02-23T13:57:22;25.90;37.90
11491;DHT22;5802;52.832;4.758;2024-02-23T13:59:49;25.90;37.90
11491;DHT22;5802;52.832;4.758;2024-02-23T14:02:16;25.90;36.70
11491;DHT22;5802;52.832;4.758;2024-02-23T14:04:46;25.90;34.90
11491;DHT22;5802;52.832;4.758;2024-02-23T14:07:13;25.90;34.50
11491;DHT22;5802;52.832;4.758;2024-02-23T14:09:40;25.80;34.30
11491;DHT22;5802;52.832;4.758;2024-02-23T14:12:07;25.80;34.30
11491;DHT22;5802;52.832;4.758;2024-02-23T14:14:34;25.80;34.10
11491;DHT22;5802;52.832;4.758;2024-02-23T14:17:01;25.80;33.90
11491;DHT22;5802;52.832;4.758;2024-02-23T14:19:28;25.80;33.80
11491;DHT22;5802;52.832;4.758;2024-02-23T14:21:56;25.70;33.50
11491;DHT22;5802;52.832;4.758;2024-02-23T14:24:23;25.70;33.70
11491;DHT22;5802;52.832;4.758;2024-02-23T14:26:50;25.60;34.30
11491;DHT22;5802;52.832;4.758;2024-02-23T14:29:16;25.60;35.10
11491;DHT22;5802;52.832;4.758;2024-02-23T14:31:44;25.60;35.60
11491;DHT22;5802;52.832;4.758;2024-02-23T14:34:11;25.60;36.10
11491;DHT22;5802;52.832;4.758;2024-02-23T14:36:38;25.60;36.30
11491;DHT22;5802;52.832;4.758;2024-02-23T14:39:06;25.60;36.50
11491;DHT22;5802;52.832;4.758;2024-02-23T14:41:33;25.50;36.70
11491;DHT22;5802;52.832;4.758;2024-02-23T14:44:01;25.60;36.90
11491;DHT22;5802;52.832;4.758;2024-02-23T14:46:28;25.50;37.00
11491;DHT22;5802;52.832;4.758;2024-02-23T14:48:55;25.50;37.00
11491;DHT22;5802;52.832;4.758;2024-02-23T14:51:22;25.60;37.20
11491;DHT22;5802;52.832;4.758;2024-02-23T14:53:49;25.50;37.20
11491;DHT22;5802;52.832;4.758;2024-02-23T14:56:17;25.60;37.30
11491;DHT22;5802;52.832;4.758;2024-02-23T14:58:44;25.60;37.40
11491;DHT22;5802;52.832;4.758;2024-02-23T15:01:12;25.60;37.50
11491;DHT22;5802;52.832;4.758;2024-02-23T15:03:39;25.50;37.40
11491;DHT22;5802;52.832;4.758;2024-02-23T15:06:06;25.60;37.60
11491;DHT22;5802;52.832;4.758;2024-02-23T15:08:33;25.60;37.60
11491;DHT22;5802;52.832;4.758;2024-02-23T15:11:00;25.50;37.60
11491;DHT22;5802;52.832;4.758;2024-02-23T15:13:29;25.60;37.70
11491;DHT22;5802;52.832;4.758;2024-02-23T15:15:55;25.50;37.70
11491;DHT22;5802;52.832;4.758;2024-02-23T15:18:22;25.50;37.80
11491;DHT22;5802;52.832;4.758;2024-02-23T15:20:49;25.50;37.80
11491;DHT22;5802;52.832;4.758;2024-02-23T15:23:17;25.50;37.90
11491;DHT22;5802;52.832;4.758;2024-02-23T15:25:44;25.50;37.90
11491;DHT22;5802;52.832;4.758;2024-02-23T15:28:11;25.50;37.90
11491;DHT22;5802;52.832;4.758;2024-02-23T15:30:39;25.50;38.00
11491;DHT22;5802;52.832;4.758;2024-02-23T15:33:06;25.50;38.00
11491;DHT22;5802;52.832;4.758;2024-02-23T15:35:33;25.50;38.10
11491;DHT22;5802;52.832;4.758;2024-02-23T15:38:00;25.50;38.10
11491;DHT22;5802;52.832;4.758;2024-02-23T15:40:26;25.50;38.10
11491;DHT22;5802;52.832;4.758;2024-02-23T15:42:53;25.50;38.10
11491;DHT22;5802;52.832;4.758;2024-02-23T15:45:20;25.50;38.10
11491;DHT22;5802;52.832;4.758;2024-02-23T15:47:48;25.40;38.10